Ames, Oklahoma
Current Conditions -  °F | °C
As of 10:55 AM on Friday 24 Oct 2014 (Local Time) from KEND Reporting Station
Broken Clouds Broken Clouds  
Wind Chill: 68°   Ceiling: 25000
Heat Index: 68°   Visibility: 10mi
Dew Point: 61°   Wind: 12mph
Humidity: 78%   Direction: 180°S
Pressure: 30.1"   Gusts: NA
Location:  36.25°N, 98.19°W
Report Text: KEND 241555Z 18010KT 10SM FEW140 BKN250 20/16 A3010 RMK AO2A SLP188 52012
Loading
Personal Weather Stations






























Interactive Weather Map
Tropical Storm Tracking
New forecast layout! Learn more

10-Day Weather Forecast

Advertisements
Track Severe Weather on mobile